createdAt,value
2023-05-05T00:00:22.709Z,96329.31
2023-05-05T00:02:50.303Z,96328.75
2023-05-05T00:05:17.970Z,96327.16
2023-05-05T00:07:45.620Z,96325.78
2023-05-05T00:10:14.684Z,96321.50
2023-05-05T00:12:42.347Z,96328.72
2023-05-05T00:15:10.578Z,96320.69
2023-05-05T00:17:38.292Z,96317.22
2023-05-05T00:20:07.578Z,96316.41
2023-05-05T00:22:36.189Z,96315.84
2023-05-05T00:25:04.803Z,96313.44
2023-05-05T00:27:33.899Z,96315.31
2023-05-05T00:30:01.603Z,96319.81
2023-05-05T00:32:29.290Z,96317.97
2023-05-05T00:34:56.866Z,96319.28
2023-05-05T00:37:24.531Z,96317.66
2023-05-05T00:39:52.134Z,96320.31
2023-05-05T00:42:19.734Z,96321.41
2023-05-05T00:44:48.715Z,96312.81
2023-05-05T00:47:16.810Z,96317.59
2023-05-05T00:49:44.553Z,96323.97
2023-05-05T00:52:12.607Z,96317.31
2023-05-05T00:54:41.082Z,96319.16
2023-05-05T00:57:08.730Z,96310.59
2023-05-05T00:59:37.814Z,96324.75
2023-05-05T01:02:06.831Z,96320.47
2023-05-05T01:04:34.428Z,96322.59
2023-05-05T01:07:22.145Z,96321.97
2023-05-05T01:10:11.087Z,96323.28
2023-05-05T01:12:52.358Z,96318.22
2023-05-05T01:15:28.364Z,96314.97
2023-05-05T01:18:04.790Z,96311.75
2023-05-05T01:20:41.826Z,96316.28
2023-05-05T01:23:14.974Z,96321.03
2023-05-05T01:25:57.004Z,96322.09
2023-05-05T01:28:49.705Z,96321.28
2023-05-05T01:31:51.843Z,96318.84
2023-05-05T01:34:24.225Z,96325.03
2023-05-05T01:36:57.683Z,96320.97
2023-05-05T01:39:29.960Z,96324.72
2023-05-05T01:42:00.760Z,96319.63
2023-05-05T01:44:29.834Z,96322.28
2023-05-05T01:47:00.906Z,96321.47
2023-05-05T01:49:29.536Z,96321.47
2023-05-05T01:51:58.997Z,96317.75
2023-05-05T01:54:27.865Z,96316.13
2023-05-05T01:56:58.462Z,96319.03
2023-05-05T01:59:28.864Z,96315.59
2023-05-05T02:01:58.051Z,96323.84
2023-05-05T02:04:31.095Z,96315.81
2023-05-05T02:06:59.913Z,96315.81
2023-05-05T02:09:29.356Z,96315.03
2023-05-05T02:11:59.178Z,96314.78
2023-05-05T02:14:29.816Z,96308.06
2023-05-05T02:16:59.039Z,96308.88
2023-05-05T02:19:31.310Z,96315.53
2023-05-05T02:21:59.147Z,96319.78
2023-05-05T02:24:27.262Z,96318.19
2023-05-05T02:26:57.106Z,96328.63
2023-05-05T02:29:32.544Z,96324.31
2023-05-05T02:32:03.527Z,96327.78
2023-05-05T02:34:37.012Z,96334.19
2023-05-05T02:37:10.703Z,96329.91
2023-05-05T02:39:43.508Z,96331.78
2023-05-05T02:42:13.953Z,96335.47
2023-05-05T02:44:43.439Z,96329.84
2023-05-05T02:47:11.132Z,96330.63
2023-05-05T02:49:40.055Z,96325.31
2023-05-05T02:52:07.737Z,96330.88
2023-05-05T02:54:35.467Z,96327.66
2023-05-05T02:57:03.968Z,96322.56
2023-05-05T02:59:37.089Z,96327.09
2023-05-05T03:02:15.592Z,96326.53
2023-05-05T03:04:50.283Z,96323.31
2023-05-05T03:07:26.174Z,96327.59
2023-05-05T03:10:03.233Z,96327.84
2023-05-05T03:12:37.148Z,96329.94
2023-05-05T03:15:06.790Z,96321.38
2023-05-05T03:17:36.692Z,96323.50
2023-05-05T03:20:07.901Z,96310.16
2023-05-05T03:22:36.746Z,96311.19
2023-05-05T03:25:04.976Z,96307.97
2023-05-05T03:27:32.680Z,96313.31
2023-05-05T03:30:00.378Z,96311.13
2023-05-05T03:32:28.136Z,96308.47
2023-05-05T03:34:55.815Z,96314.03
2023-05-05T03:37:24.872Z,96312.41
2023-05-05T03:39:52.420Z,96314.03
2023-05-05T03:42:19.983Z,96315.88
2023-05-05T03:44:47.596Z,96315.31
2023-05-05T03:47:15.212Z,96321.69
2023-05-05T03:49:42.859Z,96314.78
2023-05-05T03:52:10.824Z,96323.81
2023-05-05T03:54:40.702Z,96322.78
2023-05-05T03:57:08.340Z,96321.94
2023-05-05T03:59:35.953Z,96314.19
2023-05-05T04:02:03.608Z,96316.31
2023-05-05T04:04:31.370Z,96324.53
2023-05-05T04:06:59.141Z,96322.13
2023-05-05T04:09:26.855Z,96320.53
2023-05-05T04:11:56.013Z,96315.19
2023-05-05T04:14:23.685Z,96318.66
2023-05-05T04:16:51.950Z,96315.75
2023-05-05T04:19:19.612Z,96317.38
2023-05-05T04:21:47.221Z,96323.25
2023-05-05T04:24:14.927Z,96321.38
2023-05-05T04:26:42.566Z,96315.00
2023-05-05T04:29:11.500Z,96326.72
2023-05-05T04:31:39.181Z,96324.06
2023-05-05T04:34:06.865Z,96319.53
2023-05-05T04:36:34.565Z,96324.59
2023-05-05T04:39:02.314Z,96326.22
2023-05-05T04:41:30.250Z,96319.63
2023-05-05T04:43:57.905Z,96325.75
2023-05-05T04:46:26.956Z,96321.78
2023-05-05T04:48:54.884Z,96324.22
2023-05-05T04:51:22.454Z,96328.81
2023-05-05T04:53:49.985Z,96332.84
2023-05-05T04:56:17.564Z,96337.44
2023-05-05T04:58:45.336Z,96338.56
2023-05-05T05:01:12.876Z,96335.66
2023-05-05T05:03:41.978Z,96333.25
2023-05-05T05:06:09.525Z,96329.75
2023-05-05T05:08:37.179Z,96333.25
2023-05-05T05:11:04.835Z,96346.78
2023-05-05T05:13:32.591Z,96343.88
2023-05-05T05:16:00.322Z,96341.13
2023-05-05T05:18:28.090Z,96346.69
2023-05-05T05:20:57.119Z,96355.84
2023-05-05T05:23:24.757Z,96351.06
2023-05-05T05:25:53.081Z,96357.84
2023-05-05T05:28:20.625Z,96356.84
2023-05-05T05:30:48.267Z,96361.19
2023-05-05T05:33:15.926Z,96361.28
2023-05-05T05:35:43.522Z,96361.34
2023-05-05T05:38:13.390Z,96362.47
2023-05-05T05:40:41.010Z,96369.34
2023-05-05T05:43:08.556Z,96361.88
2023-05-05T05:45:36.148Z,96362.66
2023-05-05T05:48:03.858Z,96366.94
2023-05-05T05:50:31.605Z,96368.56
2023-05-05T05:52:59.213Z,96371.78
2023-05-05T05:55:28.247Z,96370.72
2023-05-05T05:57:55.854Z,96370.97
2023-05-05T06:00:23.591Z,96370.50
2023-05-05T06:02:51.554Z,96368.69
2023-05-05T06:05:19.347Z,96369.56
2023-05-05T06:07:47.002Z,96361.03
2023-05-05T06:10:26.646Z,96364.09
2023-05-05T06:12:57.260Z,96365.81
2023-05-05T06:15:25.740Z,96358.69
2023-05-05T06:17:53.545Z,96362.19
2023-05-05T06:20:21.283Z,96365.50
2023-05-05T06:22:48.927Z,96369.25
2023-05-05T06:25:17.029Z,96368.75
2023-05-05T06:27:44.589Z,96375.72
2023-05-05T06:30:14.878Z,96383.25
2023-05-05T06:32:42.518Z,96377.41
2023-05-05T06:35:10.942Z,96382.78
2023-05-05T06:37:38.553Z,96394.00
2023-05-05T06:40:07.894Z,96386.00
2023-05-05T06:42:35.893Z,96387.31
2023-05-05T06:45:03.487Z,96380.88
2023-05-05T06:47:32.422Z,96386.97
2023-05-05T06:50:00.118Z,96394.44
2023-05-05T06:52:27.736Z,96385.63
2023-05-05T06:54:55.784Z,96386.41
2023-05-05T06:57:23.365Z,96385.38
2023-05-05T06:59:51.071Z,96380.81
2023-05-05T07:02:18.717Z,96383.75
2023-05-05T07:04:47.755Z,96372.50
2023-05-05T07:07:15.349Z,96375.53
2023-05-05T07:09:44.912Z,96383.56
2023-05-05T07:12:12.519Z,96377.47
2023-05-05T07:14:40.084Z,96385.59
2023-05-05T07:17:07.742Z,96383.53
2023-05-05T07:19:35.308Z,96387.38
2023-05-05T07:22:04.228Z,96374.06
2023-05-05T07:24:31.770Z,96376.78
2023-05-05T07:26:59.858Z,96381.38
2023-05-05T07:29:27.703Z,96380.34
2023-05-05T07:31:55.425Z,96379.25
2023-05-05T07:34:23.078Z,96374.22
2023-05-05T07:36:50.774Z,96374.50
2023-05-05T07:39:21.047Z,96372.41
2023-05-05T07:41:48.642Z,96377.56
2023-05-05T07:44:16.306Z,96370.94
2023-05-05T07:46:43.841Z,96368.03
2023-05-05T07:49:11.464Z,96363.75
2023-05-05T07:51:39.067Z,96363.31
2023-05-05T07:54:06.845Z,96363.34
2023-05-05T07:56:35.873Z,96369.03
2023-05-05T07:59:03.529Z,96368.53
2023-05-05T08:01:31.142Z,96363.19
2023-05-05T08:03:58.866Z,96364.81
2023-05-05T08:06:28.449Z,96358.91
2023-05-05T08:08:56.654Z,96360.50
2023-05-05T08:11:24.292Z,96361.53
2023-05-05T08:13:53.315Z,96352.13
2023-05-05T08:16:20.971Z,96351.88
2023-05-05T08:18:48.634Z,96348.69
2023-05-05T08:21:16.240Z,96351.34
2023-05-05T08:23:43.770Z,96342.81
2023-05-05T08:26:11.358Z,96346.03
2023-05-05T08:28:38.987Z,96340.16
2023-05-05T08:31:08.800Z,96338.56
2023-05-05T08:33:36.387Z,96343.91
2023-05-05T08:36:04.134Z,96336.16
2023-05-05T08:38:32.079Z,96354.13
2023-05-05T08:40:59.694Z,96345.56
2023-05-05T08:43:27.404Z,96337.25
2023-05-05T08:45:56.892Z,96341.03
2023-05-05T08:48:29.164Z,96332.75
2023-05-05T08:51:00.801Z,96331.16
2023-05-05T08:53:42.351Z,96330.06
2023-05-05T08:56:11.445Z,96325.28
2023-05-05T08:58:39.571Z,96316.97
2023-05-05T09:01:08.359Z,96317.28
2023-05-05T09:03:38.543Z,96314.59
2023-05-05T09:06:06.790Z,96322.38
2023-05-05T09:08:34.882Z,96324.25
2023-05-05T09:11:02.846Z,96323.19
2023-05-05T09:13:31.786Z,96320.50
2023-05-05T09:15:59.955Z,96319.69
2023-05-05T09:18:28.002Z,96321.56
2023-05-05T09:20:59.373Z,96319.69
2023-05-05T09:23:27.224Z,96322.94
2023-05-05T09:26:05.796Z,96313.25
2023-05-05T09:28:33.492Z,96312.72
2023-05-05T09:31:15.655Z,96306.84
2023-05-05T09:33:44.263Z,96313.56
2023-05-05T09:36:13.233Z,96304.97
2023-05-05T09:38:40.824Z,96298.00
2023-05-05T09:41:08.461Z,96296.41
2023-05-05T09:43:52.314Z,96298.56
2023-05-05T09:46:20.080Z,96287.56
2023-05-05T09:48:47.790Z,96279.50
2023-05-05T09:51:16.965Z,96280.31
2023-05-05T09:53:44.961Z,96275.22
2023-05-05T09:56:13.097Z,96266.66
2023-05-05T09:58:41.631Z,96269.31
2023-05-05T10:01:23.119Z,96273.31
2023-05-05T10:03:51.953Z,96272.00
2023-05-05T10:06:21.894Z,96271.47
2023-05-05T10:09:02.090Z,96270.94
2023-05-05T10:11:29.832Z,96269.59
2023-05-05T10:13:58.127Z,96273.31
2023-05-05T10:16:27.458Z,96264.75
2023-05-05T10:18:57.423Z,96264.75
2023-05-05T10:21:27.900Z,96248.38
2023-05-05T10:24:04.452Z,96247.06
2023-05-05T10:26:38.506Z,96244.88
2023-05-05T10:29:12.423Z,96240.31
2023-05-05T10:31:46.447Z,96244.34
2023-05-05T10:34:21.859Z,96236.81
2023-05-05T10:36:53.470Z,96237.66
2023-05-05T10:39:21.953Z,96227.72
2023-05-05T10:41:50.955Z,96223.97
2023-05-05T10:44:19.017Z,96222.34
2023-05-05T10:46:47.577Z,96218.03
2023-05-05T10:49:25.657Z,96216.16
2023-05-05T10:52:10.439Z,96211.06
2023-05-05T10:54:44.155Z,96210.81
2023-05-05T10:57:13.220Z,96204.66
2023-05-05T10:59:44.403Z,96200.06
2023-05-05T11:02:21.968Z,96204.63
2023-05-05T11:05:12.171Z,96200.31
2023-05-05T11:07:42.771Z,96194.97
2023-05-05T11:10:11.667Z,96189.84
2023-05-05T11:13:12.741Z,96187.72
2023-05-05T11:15:40.603Z,96185.56
2023-05-05T11:18:08.783Z,96175.06
2023-05-05T11:21:19.377Z,96172.91
2023-05-05T11:23:52.844Z,96174.72
2023-05-05T11:26:50.908Z,96171.25
2023-05-05T11:29:19.899Z,96172.06
2023-05-05T11:32:15.486Z,96170.19
2023-05-05T11:34:49.859Z,96166.97
2023-05-05T11:37:17.550Z,96160.00
2023-05-05T11:39:55.803Z,96165.09
2023-05-05T11:42:26.046Z,96158.13
2023-05-05T11:44:55.966Z,96160.28
2023-05-05T11:47:31.960Z,96162.69
2023-05-05T11:50:00.209Z,96164.53
2023-05-05T11:52:28.435Z,96165.59
2023-05-05T11:55:01.852Z,96175.50
2023-05-05T11:57:30.649Z,96166.09
2023-05-05T12:00:02.063Z,96160.44
2023-05-05T12:02:31.227Z,96158.81
2023-05-05T12:05:00.865Z,96156.66
2023-05-05T12:07:30.120Z,96151.28
2023-05-05T12:09:57.965Z,96154.75
2023-05-05T12:12:35.884Z,96147.22
2023-05-05T12:15:06.414Z,96142.97
2023-05-05T12:17:40.009Z,96136.75
2023-05-05T12:20:10.139Z,96137.88
2023-05-05T12:22:38.263Z,96136.25
2023-05-05T12:25:08.105Z,96140.03
2023-05-05T12:27:36.361Z,96132.81
2023-05-05T12:30:17.506Z,96127.72
2023-05-05T12:32:46.471Z,96121.56
2023-05-05T12:35:15.827Z,96114.63
2023-05-05T12:37:43.991Z,96114.63
2023-05-05T12:40:47.899Z,96109.25
2023-05-05T12:43:26.481Z,96103.63
2023-05-05T12:46:10.001Z,96096.94
2023-05-05T12:48:39.184Z,96092.41
2023-05-05T12:51:14.662Z,96088.88
2023-05-05T12:53:42.603Z,96083.25
2023-05-05T12:56:34.790Z,96071.66
2023-05-05T12:59:03.703Z,96067.38
2023-05-05T13:01:33.386Z,96064.97
2023-05-05T13:04:11.828Z,96067.91
2023-05-05T13:06:40.432Z,96069.75
2023-05-05T13:09:09.592Z,96062.78
2023-05-05T13:11:38.136Z,96060.63
2023-05-05T13:14:07.229Z,96052.00
2023-05-05T13:16:36.291Z,96039.88
2023-05-05T13:19:03.835Z,96035.88
2023-05-05T13:21:31.530Z,96027.28
2023-05-05T13:24:12.372Z,96025.59
2023-05-05T13:26:46.951Z,96026.16
2023-05-05T13:29:14.587Z,96023.72
2023-05-05T13:31:43.744Z,96027.50
2023-05-05T13:34:11.712Z,96039.03
2023-05-05T13:36:39.350Z,96033.09
2023-05-05T13:39:07.227Z,96035.56
2023-05-05T13:41:34.870Z,96033.19
2023-05-05T13:44:02.746Z,96035.66
2023-05-05T13:46:30.647Z,96038.13
2023-05-05T13:48:59.608Z,96038.38
2023-05-05T13:51:27.734Z,96038.38
2023-05-05T13:53:55.349Z,96049.41
2023-05-05T13:56:26.001Z,96046.19
2023-05-05T13:58:53.628Z,96035.22
2023-05-05T14:01:21.277Z,96023.72
2023-05-05T14:03:48.890Z,96009.53
2023-05-05T14:06:17.909Z,96002.31
2023-05-05T14:08:46.089Z,95998.53
2023-05-05T14:11:13.833Z,96003.94
2023-05-05T14:13:41.526Z,95994.59
2023-05-05T14:16:09.162Z,95990.56
2023-05-05T14:18:36.807Z,95987.66
2023-05-05T14:21:04.534Z,95992.47
2023-05-05T14:23:33.493Z,95991.44
2023-05-05T14:26:01.187Z,96010.50
2023-05-05T14:28:28.834Z,96012.63
2023-05-05T14:30:56.670Z,96020.94
2023-05-05T14:33:24.289Z,96024.72
2023-05-05T14:35:52.000Z,96019.63
2023-05-05T14:38:19.655Z,96005.97
2023-05-05T14:40:48.732Z,96000.06
2023-05-05T14:43:16.368Z,96005.72
2023-05-05T14:45:44.218Z,96020.22
2023-05-05T14:48:12.385Z,96039.25
2023-05-05T14:50:42.354Z,96045.97
2023-05-05T14:53:09.991Z,96051.59
2023-05-05T14:55:38.088Z,96045.72
2023-05-05T14:58:07.062Z,96052.41
2023-05-05T15:00:34.649Z,96060.72
2023-05-05T15:03:02.474Z,96100.44
2023-05-05T15:05:30.165Z,96102.59
2023-05-05T15:07:57.719Z,96137.72
2023-05-05T15:10:25.588Z,96147.88
2023-05-05T15:12:53.177Z,96158.06
2023-05-05T15:15:22.191Z,96188.91
2023-05-05T15:17:49.889Z,96211.69
2023-05-05T15:20:17.551Z,96221.88
2023-05-05T15:22:45.167Z,96201.78
2023-05-05T15:25:14.810Z,96187.03
2023-05-05T15:27:42.619Z,96179.81
2023-05-05T15:30:11.348Z,96198.31
2023-05-05T15:32:40.445Z,96197.75
2023-05-05T15:35:09.339Z,96205.22
2023-05-05T15:37:37.771Z,96212.22
2023-05-05T15:40:06.677Z,96200.94
2023-05-05T15:42:34.510Z,96195.84
2023-05-05T15:45:02.887Z,96172.81
2023-05-05T15:47:30.640Z,96172.56
2023-05-05T15:49:59.682Z,96163.41
2023-05-05T15:52:27.599Z,96153.25
2023-05-05T15:54:55.208Z,96160.47
2023-05-05T15:57:22.887Z,96169.59
2023-05-05T15:59:51.932Z,96171.19
2023-05-05T16:02:19.618Z,96167.47
2023-05-05T16:04:47.756Z,96163.69
2023-05-05T16:07:16.984Z,96139.84
2023-05-05T16:09:45.144Z,96130.22
2023-05-05T16:12:12.809Z,96153.25
2023-05-05T16:14:40.443Z,96161.28
2023-05-05T16:17:08.910Z,96173.34
2023-05-05T16:19:36.547Z,96171.22
2023-05-05T16:22:04.145Z,96158.06
2023-05-05T16:24:33.107Z,96163.16
2023-05-05T16:27:00.721Z,96175.53
2023-05-05T16:29:28.346Z,96175.53
2023-05-05T16:31:56.068Z,96165.59
2023-05-05T16:34:23.806Z,96169.31
2023-05-05T16:36:53.257Z,96176.84
2023-05-05T16:39:20.856Z,96182.19
2023-05-05T16:41:49.835Z,96172.53
2023-05-05T16:44:17.410Z,96174.69
2023-05-05T16:46:45.036Z,96167.19
2023-05-05T16:49:12.777Z,96168.53
2023-05-05T16:51:40.686Z,96165.59
2023-05-05T16:54:08.345Z,96166.13
2023-05-05T16:56:36.038Z,96162.91
2023-05-05T16:59:05.008Z,96164.78
2023-05-05T17:01:34.663Z,96168.81
2023-05-05T17:04:02.471Z,96169.06
2023-05-05T17:06:32.748Z,96158.88
2023-05-05T17:09:00.408Z,96157.28
2023-05-05T17:11:27.999Z,96161.56
2023-05-05T17:13:55.991Z,96170.94
2023-05-05T17:16:25.097Z,96173.34
2023-05-05T17:18:54.544Z,96181.94
2023-05-05T17:21:22.153Z,96192.91
2023-05-05T17:23:50.094Z,96197.97
2023-05-05T17:26:17.695Z,96193.44
2023-05-05T17:28:45.279Z,96200.91
2023-05-05T17:31:12.948Z,96202.28
2023-05-05T17:33:41.949Z,96210.56
2023-05-05T17:36:10.265Z,96208.16
2023-05-05T17:38:37.882Z,96214.84
2023-05-05T17:41:06.306Z,96216.19
2023-05-05T17:43:33.934Z,96215.91
2023-05-05T17:46:01.653Z,96218.06
2023-05-05T17:48:29.321Z,96225.28
2023-05-05T17:50:59.352Z,96231.44
2023-05-05T17:53:27.342Z,96228.22
2023-05-05T17:55:55.010Z,96229.28
2023-05-05T17:58:22.599Z,96238.69
2023-05-05T18:00:50.851Z,96241.88
2023-05-05T18:03:18.661Z,96241.31
2023-05-05T18:05:46.469Z,96242.66
2023-05-05T18:08:15.405Z,96242.09
2023-05-05T18:10:43.124Z,96238.91
2023-05-05T18:13:10.752Z,96239.97
2023-05-05T18:15:38.425Z,96237.81
2023-05-05T18:18:06.160Z,96241.00
2023-05-05T18:20:33.720Z,96238.06
2023-05-05T18:23:01.362Z,96231.38
2023-05-05T18:25:30.531Z,96234.56
2023-05-05T18:27:58.368Z,96232.44
2023-05-05T18:30:26.266Z,96237.22
2023-05-05T18:32:53.947Z,96243.66
2023-05-05T18:35:21.583Z,96243.09
2023-05-05T18:37:49.712Z,96242.28
2023-05-05T18:40:17.538Z,96242.78
2023-05-05T18:42:46.524Z,96237.69
2023-05-05T18:45:14.189Z,96238.75
2023-05-05T18:47:42.066Z,96241.72
2023-05-05T18:50:10.283Z,96241.97
2023-05-05T18:52:37.945Z,96245.16
2023-05-05T18:55:06.723Z,96257.72
2023-05-05T18:57:34.345Z,96259.06
2023-05-05T19:00:03.281Z,96265.47
2023-05-05T19:02:31.009Z,96270.03
2023-05-05T19:04:58.644Z,96279.13
2023-05-05T19:07:35.040Z,96279.38
2023-05-05T19:10:05.142Z,96285.78
2023-05-05T19:12:32.953Z,96286.03
2023-05-05T19:15:01.246Z,96284.44
2023-05-05T19:17:30.162Z,96286.56
2023-05-05T19:19:57.785Z,96291.38
2023-05-05T19:22:25.579Z,96292.41
2023-05-05T19:24:53.224Z,96297.75
2023-05-05T19:27:21.420Z,96288.94
2023-05-05T19:29:52.007Z,96294.00
2023-05-05T19:32:20.011Z,96290.53
2023-05-05T19:34:49.141Z,96306.03
2023-05-05T19:37:16.796Z,96304.44
2023-05-05T19:39:45.586Z,96313.50
2023-05-05T19:42:13.315Z,96311.09
2023-05-05T19:44:40.950Z,96312.97
2023-05-05T19:47:09.034Z,96303.31
2023-05-05T19:49:38.440Z,96306.50
2023-05-05T19:52:07.533Z,96310.25
2023-05-05T19:54:36.055Z,96312.91
2023-05-05T19:57:03.888Z,96322.03
2023-05-05T19:59:31.601Z,96307.28
2023-05-05T20:01:59.269Z,96320.13
2023-05-05T20:04:27.085Z,96306.19
2023-05-05T20:06:54.728Z,96315.53
2023-05-05T20:09:23.653Z,96315.78
2023-05-05T20:11:51.269Z,96317.09
2023-05-05T20:14:18.858Z,96318.19
2023-05-05T20:16:46.428Z,96326.47
2023-05-05T20:19:14.103Z,96312.50
2023-05-05T20:21:41.825Z,96322.41
2023-05-05T20:24:09.704Z,96321.03
2023-05-05T20:26:38.666Z,96323.19
2023-05-05T20:29:06.290Z,96322.38
2023-05-05T20:31:34.854Z,96318.34
2023-05-05T20:34:02.608Z,96316.97
2023-05-05T20:36:30.236Z,96315.63
2023-05-05T20:38:57.900Z,96323.66
2023-05-05T20:41:25.691Z,96325.78
2023-05-05T20:43:54.683Z,96334.06
2023-05-05T20:46:22.343Z,96331.63
2023-05-05T20:48:49.984Z,96334.00
2023-05-05T20:51:17.583Z,96328.91
2023-05-05T20:53:45.324Z,96338.00
2023-05-05T20:56:12.928Z,96336.59
2023-05-05T20:58:41.080Z,96330.44
2023-05-05T21:01:10.148Z,96326.97
2023-05-05T21:03:38.129Z,96330.72
2023-05-05T21:06:06.179Z,96329.34
2023-05-05T21:08:33.781Z,96332.25
2023-05-05T21:11:01.469Z,96329.59
2023-05-05T21:13:29.154Z,96322.13
2023-05-05T21:15:56.756Z,96321.31
2023-05-05T21:18:27.461Z,96324.25
2023-05-05T21:20:55.324Z,96325.78
2023-05-05T21:23:23.063Z,96317.50
2023-05-05T21:25:50.784Z,96313.22
2023-05-05T21:28:18.383Z,96318.81
2023-05-05T21:30:54.778Z,96318.00
2023-05-05T21:33:34.035Z,96315.56
2023-05-05T21:36:01.912Z,96311.84
2023-05-05T21:38:29.599Z,96319.31
2023-05-05T21:40:58.052Z,96311.81
2023-05-05T21:43:28.554Z,96316.34
2023-05-05T21:45:59.867Z,96309.41
2023-05-05T21:48:27.738Z,96301.63
2023-05-05T21:50:56.669Z,96300.25
2023-05-05T21:53:24.555Z,96300.50
2023-05-05T21:55:52.471Z,96290.88
2023-05-05T21:58:20.180Z,96288.47
2023-05-05T22:00:49.771Z,96285.78
2023-05-05T22:03:17.505Z,96279.66
2023-05-05T22:05:46.019Z,96280.69
2023-05-05T22:08:15.026Z,96279.91
2023-05-05T22:10:42.741Z,96281.47
2023-05-05T22:13:10.854Z,96280.91
2023-05-05T22:15:45.848Z,96280.38
2023-05-05T22:18:14.745Z,96286.50
2023-05-05T22:20:42.712Z,96281.41
2023-05-05T22:23:10.425Z,96275.53
2023-05-05T22:25:39.380Z,96275.78
2023-05-05T22:28:07.051Z,96274.72
2023-05-05T22:30:34.738Z,96282.16
2023-05-05T22:33:02.571Z,96284.28
2023-05-05T22:35:30.377Z,96278.41
2023-05-05T22:37:58.186Z,96282.13
2023-05-05T22:40:25.872Z,96281.31
2023-05-05T22:42:54.851Z,96276.50
2023-05-05T22:45:22.861Z,96275.91
2023-05-05T22:47:50.932Z,96273.25
2023-05-05T22:50:18.696Z,96281.53
2023-05-05T22:52:46.628Z,96279.13
2023-05-05T22:55:15.109Z,96287.38
2023-05-05T22:57:43.389Z,96284.13
2023-05-05T23:00:13.057Z,96279.88
2023-05-05T23:02:41.444Z,96280.66
2023-05-05T23:05:10.344Z,96278.25
2023-05-05T23:07:38.422Z,96275.28
2023-05-05T23:10:07.053Z,96278.19
2023-05-05T23:12:34.643Z,96275.53
2023-05-05T23:15:02.264Z,96277.38
2023-05-05T23:17:31.327Z,96273.09
2023-05-05T23:19:58.954Z,96280.03
2023-05-05T23:22:26.629Z,96269.84
2023-05-05T23:24:54.349Z,96271.19
2023-05-05T23:27:22.999Z,96275.69
2023-05-05T23:29:50.598Z,96272.22
2023-05-05T23:32:18.291Z,96274.91
2023-05-05T23:34:47.304Z,96274.34
2023-05-05T23:37:15.121Z,96272.72
2023-05-05T23:39:43.046Z,96269.25
2023-05-05T23:42:10.671Z,96266.84
2023-05-05T23:44:38.342Z,96262.78
2023-05-05T23:47:06.543Z,96264.41
2023-05-05T23:49:34.227Z,96267.34
2023-05-05T23:52:03.259Z,96268.38
2023-05-05T23:54:30.889Z,96262.25
2023-05-05T23:56:58.641Z,96266.53
2023-05-05T23:59:26.287Z,96260.97
